Time;durP1;ratioP1;P1;durP2;ratioP2;P2;SDS_P1;SDS_P2;PMS_P1;PMS_P2;Temp;Humidity;BMP_temperature;BMP_pressure;BME280_temperature;BME280_humidity;BME280_pressure;Samples;Min_cycle;Max_cycle;Signal;HPM_P1;HPM_P2
2021/12/09 00:00:13;;;;;;;1999.90;999.90;;;;;;;;;;4982564;28;20026;-94
2021/12/09 00:02:39;;;;;;;1999.90;999.90;;;;;;;;;;4998358;28;20033;-94
2021/12/09 00:05:10;;;;;;;1999.90;999.90;;;;;;;;;;4982399;28;20518;-93
2021/12/09 00:07:41;;;;;;;1999.90;999.90;;;;;;;;;;4984358;28;20608;-93
2021/12/09 00:10:11;;;;;;;1999.90;999.90;;;;;;;;;;5002151;28;20502;-93
2021/12/09 00:12:37;;;;;;;1999.90;999.90;;;;;;;;;;4979704;28;20026;-94
2021/12/09 00:15:09;;;;;;;1999.90;999.90;;;;;;;;;;4982030;28;20036;-93
2021/12/09 00:17:38;;;;;;;1999.90;999.90;;;;;;;;;;4966021;28;20030;-94
2021/12/09 00:20:07;;;;;;;1999.90;999.90;;;;;;;;;;4982042;28;20483;-93
2021/12/09 00:22:33;;;;;;;1999.90;999.90;;;;;;;;;;4981610;28;20467;-93
2021/12/09 00:25:02;;;;;;;1999.90;999.90;;;;;;;;;;4981528;28;20073;-94
2021/12/09 00:27:30;;;;;;;1999.90;999.90;;;;;;;;;;4982008;28;20037;-94
2021/12/09 00:29:56;;;;;;;1999.90;999.90;;;;;;;;;;4981652;28;20040;-93
2021/12/09 00:32:25;;;;;;;1999.90;999.90;;;;;;;;;;4981689;28;20434;-94
2021/12/09 00:34:52;;;;;;;1999.90;999.90;;;;;;;;;;4981640;28;20041;-94
2021/12/09 00:37:29;;;;;;;1999.90;999.90;;;;;;;;;;4981943;28;20044;-93
2021/12/09 00:39:57;;;;;;;1999.90;999.90;;;;;;;;;;4982769;28;20393;-93
2021/12/09 00:42:25;;;;;;;1999.90;999.90;;;;;;;;;;4981797;28;20076;-94
2021/12/09 00:44:54;;;;;;;1999.90;999.90;;;;;;;;;;4981371;28;20092;-94
2021/12/09 00:47:26;;;;;;;1999.90;999.90;;;;;;;;;;4981575;28;20022;-93
2021/12/09 00:49:56;;;;;;;1999.90;999.90;;;;;;;;;;4981229;28;20546;-93
2021/12/09 00:52:25;;;;;;;1999.90;999.90;;;;;;;;;;4977833;28;20049;-94
2021/12/09 00:54:51;;;;;;;1999.90;999.90;;;;;;;;;;4958490;28;20029;-93
2021/12/09 00:57:19;;;;;;;1999.90;999.90;;;;;;;;;;4965193;28;20384;-93
2021/12/09 00:59:48;;;;;;;1999.90;999.90;;;;;;;;;;4965149;28;20507;-94
2021/12/09 01:02:18;;;;;;;1999.90;999.90;;;;;;;;;;4965465;28;20036;-94
2021/12/09 01:04:44;;;;;;;1999.90;999.90;;;;;;;;;;4981179;28;20036;-94
2021/12/09 01:07:13;;;;;;;1999.90;999.90;;;;;;;;;;4965170;28;20604;-94
2021/12/09 01:09:40;;;;;;;1547.43;753.45;;;;;;;;;;4965314;28;20407;-93
2021/12/09 01:12:09;;;;;;;1999.90;999.90;;;;;;;;;;4965598;28;20080;-94
2021/12/09 01:14:37;;;;;;;1999.90;999.90;;;;;;;;;;4961808;28;20034;-94
2021/12/09 01:17:09;;;;;;;1999.90;999.90;;;;;;;;;;4946369;28;20563;-94
2021/12/09 01:19:36;;;;;;;1999.90;999.90;;;;;;;;;;4946182;28;20481;-93
2021/12/09 01:22:09;;;;;;;1999.90;999.90;;;;;;;;;;4977394;28;20539;-94
2021/12/09 01:24:39;;;;;;;1999.90;999.90;;;;;;;;;;4945632;28;20393;-94
2021/12/09 01:27:11;;;;;;;1999.90;999.90;;;;;;;;;;4977214;28;20030;-93
2021/12/09 01:29:40;;;;;;;1999.90;999.90;;;;;;;;;;4945653;28;20038;-93
2021/12/09 01:32:12;;;;;;;1999.90;999.90;;;;;;;;;;4962440;28;20033;-94
2021/12/09 01:34:39;;;;;;;1999.90;999.90;;;;;;;;;;4996205;28;20040;-93
2021/12/09 01:37:08;;;;;;;1999.90;999.90;;;;;;;;;;4980688;28;20102;-94
2021/12/09 01:39:36;;;;;;;1999.90;999.90;;;;;;;;;;4980693;28;20038;-94
2021/12/09 01:42:03;;;;;;;1999.90;999.90;;;;;;;;;;4964331;28;20026;-94
2021/12/09 01:44:29;;;;;;;1999.90;999.90;;;;;;;;;;4996602;28;20029;-93
2021/12/09 01:46:58;;;;;;;1999.90;999.90;;;;;;;;;;4980453;28;20030;-94
2021/12/09 01:49:28;;;;;;;1999.90;999.90;;;;;;;;;;4980360;28;20132;-93
2021/12/09 01:52:00;;;;;;;1999.90;999.90;;;;;;;;;;4964338;28;20109;-93
2021/12/09 01:54:29;;;;;;;1999.90;999.90;;;;;;;;;;4960812;28;20034;-93
2021/12/09 01:57:01;;;;;;;1999.90;999.90;;;;;;;;;;4947742;28;20062;-93
2021/12/09 01:59:28;;;;;;;1999.90;999.90;;;;;;;;;;4964167;28;20030;-93
2021/12/09 02:01:57;;;;;;;1999.90;999.90;;;;;;;;;;4964195;28;20428;-93
2021/12/09 02:04:25;;;;;;;1999.90;999.90;;;;;;;;;;4980276;28;20443;-93
2021/12/09 02:06:54;;;;;;;1999.90;999.90;;;;;;;;;;4980245;28;20079;-93
2021/12/09 02:09:21;;;;;;;1999.90;999.90;;;;;;;;;;4964092;28;20418;-94
2021/12/09 02:11:49;;;;;;;1999.90;999.90;;;;;;;;;;4979841;28;20025;-94
2021/12/09 02:14:15;;;;;;;1999.90;999.90;;;;;;;;;;4963933;28;20037;-94
2021/12/09 02:16:47;;;;;;;1999.90;999.90;;;;;;;;;;4964053;28;20113;-93
2021/12/09 02:19:16;;;;;;;1999.90;999.90;;;;;;;;;;4980485;28;20420;-93
2021/12/09 02:21:45;;;;;;;1999.90;999.90;;;;;;;;;;4976790;28;20070;-93
2021/12/09 02:24:18;;;;;;;1999.90;999.90;;;;;;;;;;4944950;28;20034;-93
2021/12/09 02:26:49;;;;;;;1999.90;999.90;;;;;;;;;;4944658;28;20029;-94
2021/12/09 02:29:17;;;;;;;1999.90;999.90;;;;;;;;;;4960714;28;20044;-93
2021/12/09 02:31:43;;;;;;;1999.90;999.90;;;;;;;;;;4944098;28;20828;-93
2021/12/09 02:34:10;;;;;;;1999.90;999.90;;;;;;;;;;4943144;28;20058;-94
2021/12/09 02:36:38;;;;;;;1999.90;999.90;;;;;;;;;;4953931;28;20033;-93
2021/12/09 02:39:08;;;;;;;1999.90;999.90;;;;;;;;;;4976399;28;20053;-94
2021/12/09 02:41:35;;;;;;;1999.90;999.90;;;;;;;;;;4975840;28;20033;-93
2021/12/09 02:44:03;;;;;;;1999.90;999.90;;;;;;;;;;4979034;28;20037;-93
2021/12/09 02:46:37;;;;;;;1999.90;999.90;;;;;;;;;;4963886;28;20144;-92
2021/12/09 02:49:15;;;;;;;1999.90;999.90;;;;;;;;;;4964732;28;20034;-93
2021/12/09 02:51:43;;;;;;;1999.90;999.90;;;;;;;;;;4963962;28;20480;-93
2021/12/09 02:54:12;;;;;;;1999.90;999.90;;;;;;;;;;4963217;28;20034;-93
2021/12/09 02:56:41;;;;;;;1999.90;999.90;;;;;;;;;;4963695;28;20124;-94
2021/12/09 02:59:10;;;;;;;1999.90;999.90;;;;;;;;;;4963778;28;20092;-93
2021/12/09 03:02:07;;;;;;;1999.90;999.90;;;;;;;;;;4979729;28;20038;-93
2021/12/09 03:04:43;;;;;;;1999.90;999.90;;;;;;;;;;4968786;28;20121;-93
2021/12/09 03:07:13;;;;;;;1999.90;999.90;;;;;;;;;;4979494;28;20030;-94
2021/12/09 03:09:48;;;;;;;1999.90;999.90;;;;;;;;;;4978950;28;20448;-93
2021/12/09 03:12:23;;;;;;;1999.90;999.90;;;;;;;;;;4965672;28;20041;-93
2021/12/09 03:14:50;;;;;;;1999.90;999.90;;;;;;;;;;4960142;28;20042;-93
2021/12/09 03:17:19;;;;;;;1999.90;999.90;;;;;;;;;;4952992;28;20435;-93
2021/12/09 03:19:45;;;;;;;1999.90;999.90;;;;;;;;;;4979285;28;20117;-94
2021/12/09 03:22:12;;;;;;;1999.90;999.90;;;;;;;;;;4963539;28;20433;-92
2021/12/09 03:24:41;;;;;;;1999.90;999.90;;;;;;;;;;4979561;28;20038;-93
2021/12/09 03:27:10;;;;;;;1999.90;999.90;;;;;;;;;;4979502;28;20065;-94
2021/12/09 03:29:36;;;;;;;1999.90;999.90;;;;;;;;;;4980273;28;20022;-93
2021/12/09 03:32:05;;;;;;;1999.90;999.90;;;;;;;;;;4979409;28;20042;-93
2021/12/09 03:34:37;;;;;;;1999.90;999.90;;;;;;;;;;4995404;28;20050;-93
2021/12/09 03:37:10;;;;;;;1999.90;999.90;;;;;;;;;;4979027;28;20036;-94
2021/12/09 03:39:39;;;;;;;1999.90;999.90;;;;;;;;;;4978684;28;20137;-93
2021/12/09 03:42:13;;;;;;;1999.90;999.90;;;;;;;;;;4994957;28;20034;-94
2021/12/09 03:44:43;;;;;;;1999.90;999.90;;;;;;;;;;4979356;28;20037;-93
2021/12/09 03:47:13;;;;;;;1999.90;999.90;;;;;;;;;;4998466;28;20388;-93
2021/12/09 03:49:44;;;;;;;1999.90;999.90;;;;;;;;;;4994331;28;20053;-94
2021/12/09 03:52:11;;;;;;;1999.90;999.90;;;;;;;;;;4966685;28;20037;-93
2021/12/09 03:54:37;;;;;;;1999.90;999.90;;;;;;;;;;4964888;28;20034;-93
2021/12/09 03:57:04;;;;;;;1999.90;999.90;;;;;;;;;;4982197;28;20396;-93
2021/12/09 03:59:31;;;;;;;1999.90;999.90;;;;;;;;;;4998426;28;20474;-93
2021/12/09 04:01:59;;;;;;;1999.90;999.90;;;;;;;;;;4966066;28;20038;-94
2021/12/09 04:04:26;;;;;;;1999.90;999.90;;;;;;;;;;4998548;28;20472;-93
2021/12/09 04:06:52;;;;;;;1999.90;999.90;;;;;;;;;;4966142;28;20121;-93
2021/12/09 04:09:20;;;;;;;1999.90;999.90;;;;;;;;;;4983783;28;20037;-93
2021/12/09 04:12:04;;;;;;;1999.90;999.90;;;;;;;;;;4997998;28;20034;-93
2021/12/09 04:14:32;;;;;;;1999.90;999.90;;;;;;;;;;4965957;28;20439;-92
2021/12/09 04:17:00;;;;;;;1999.90;999.90;;;;;;;;;;4965828;28;20033;-93
2021/12/09 04:19:27;;;;;;;1999.90;999.90;;;;;;;;;;4998515;28;20026;-93
2021/12/09 04:21:54;;;;;;;1999.90;999.90;;;;;;;;;;4965655;28;20495;-93
2021/12/09 04:24:23;;;;;;;1999.90;999.90;;;;;;;;;;4965702;28;20515;-93
2021/12/09 04:26:52;;;;;;;1999.90;999.90;;;;;;;;;;4966046;28;20022;-93
2021/12/09 04:29:20;;;;;;;1999.90;999.90;;;;;;;;;;4965850;28;20407;-92
2021/12/09 04:31:51;;;;;;;1999.90;999.90;;;;;;;;;;4981711;28;20037;-92
2021/12/09 04:34:18;;;;;;;1999.90;999.90;;;;;;;;;;4982478;28;20400;-93
2021/12/09 04:36:43;;;;;;;1999.90;999.90;;;;;;;;;;4981827;28;20045;-93
2021/12/09 04:39:09;;;;;;;1999.90;999.90;;;;;;;;;;4982001;28;20034;-93
2021/12/09 04:41:35;;;;;;;1999.90;999.90;;;;;;;;;;4981466;28;20460;-92
2021/12/09 04:44:04;;;;;;;1999.90;999.90;;;;;;;;;;4981328;28;20060;-93
2021/12/09 04:46:30;;;;;;;1999.90;999.90;;;;;;;;;;4981574;28;20361;-92
2021/12/09 04:48:56;;;;;;;1999.90;999.90;;;;;;;;;;4982057;28;20061;-93
2021/12/09 04:51:23;;;;;;;1999.90;999.90;;;;;;;;;;4965557;28;20037;-93
2021/12/09 04:53:49;;;;;;;1999.90;999.90;;;;;;;;;;4965562;28;20419;-93
2021/12/09 04:56:16;;;;;;;1999.90;999.90;;;;;;;;;;4981405;28;20040;-93
2021/12/09 04:58:42;;;;;;;1999.90;999.90;;;;;;;;;;4964297;28;20029;-93
2021/12/09 05:01:08;;;;;;;1999.90;999.90;;;;;;;;;;4980380;28;20037;-93
2021/12/09 05:03:34;;;;;;;1999.90;999.90;;;;;;;;;;4981360;28;20079;-93
2021/12/09 05:06:00;;;;;;;1999.90;999.90;;;;;;;;;;4981061;28;20072;-92
2021/12/09 05:08:32;;;;;;;1999.90;999.90;;;;;;;;;;4980835;28;20029;-93
2021/12/09 05:11:13;;;;;;;1999.90;999.90;;;;;;;;;;4996909;28;20400;-93
2021/12/09 05:13:42;;;;;;;1999.90;999.90;;;;;;;;;;4982918;28;20044;-92
2021/12/09 05:16:09;;;;;;;1999.90;999.90;;;;;;;;;;4996970;28;20088;-93
2021/12/09 05:18:39;;;;;;;1999.90;999.90;;;;;;;;;;4981295;28;20459;-93
2021/12/09 05:21:10;;;;;;;1999.90;999.90;;;;;;;;;;4977262;28;20038;-93
2021/12/09 05:23:36;;;;;;;1999.90;999.90;;;;;;;;;;4947919;28;20389;-93
2021/12/09 05:26:03;;;;;;;1999.90;999.90;;;;;;;;;;4979664;28;20030;-92
2021/12/09 05:28:35;;;;;;;1999.90;999.90;;;;;;;;;;4964186;28;20060;-91
2021/12/09 05:33:50;;;;;;;1999.90;999.90;;;;;;;;;;4995992;28;20121;-92
2021/12/09 05:36:17;;;;;;;1999.90;999.90;;;;;;;;;;4961401;28;20030;-92
2021/12/09 05:38:43;;;;;;;1999.90;999.90;;;;;;;;;;4977947;28;20058;-92
2021/12/09 05:41:10;;;;;;;1999.90;999.90;;;;;;;;;;4977384;28;20028;-92
2021/12/09 05:43:40;;;;;;;1999.90;999.90;;;;;;;;;;4977313;28;20080;-93
2021/12/09 05:46:09;;;;;;;1999.90;999.90;;;;;;;;;;4977200;28;20552;-92
2021/12/09 05:48:36;;;;;;;1999.90;999.90;;;;;;;;;;4976972;28;20026;-93
2021/12/09 05:51:03;;;;;;;1999.90;999.90;;;;;;;;;;4977304;28;20057;-92
2021/12/09 05:53:30;;;;;;;1999.90;999.90;;;;;;;;;;4976955;28;20060;-92
2021/12/09 05:56:00;;;;;;;1999.90;999.90;;;;;;;;;;4993963;28;20121;-87
2021/12/09 05:58:28;;;;;;;1999.90;999.90;;;;;;;;;;4995735;28;20037;-89
2021/12/09 06:00:56;;;;;;;1999.90;999.90;;;;;;;;;;4979357;28;20029;-89
2021/12/09 06:03:22;;;;;;;1999.90;999.90;;;;;;;;;;4959539;28;20034;-89
2021/12/09 06:05:50;;;;;;;1999.90;999.90;;;;;;;;;;4995169;28;20435;-87
2021/12/09 06:08:19;;;;;;;1999.90;999.90;;;;;;;;;;4979365;28;20058;-89
2021/12/09 06:10:45;;;;;;;1999.90;999.90;;;;;;;;;;4963943;28;20084;-88
2021/12/09 06:13:11;;;;;;;1999.90;999.90;;;;;;;;;;4979736;28;20026;-86
2021/12/09 06:15:36;;;;;;;1999.90;999.90;;;;;;;;;;4979602;28;20040;-88
2021/12/09 06:18:03;;;;;;;1999.90;999.90;;;;;;;;;;4978993;28;20053;-87
2021/12/09 06:20:28;;;;;;;1999.90;999.90;;;;;;;;;;4961881;28;20120;-90
2021/12/09 06:22:54;;;;;;;1999.90;999.90;;;;;;;;;;4961679;28;20034;-86
2021/12/09 06:25:21;;;;;;;1999.90;999.90;;;;;;;;;;4978352;28;20075;-85
2021/12/09 06:27:50;;;;;;;1999.90;999.90;;;;;;;;;;4979238;28;20472;-88
2021/12/09 06:30:16;;;;;;;1999.90;999.90;;;;;;;;;;4978982;28;20038;-84
2021/12/09 06:32:44;;;;;;;1999.90;999.90;;;;;;;;;;4978792;28;20022;-87
2021/12/09 06:35:10;;;;;;;1999.90;999.90;;;;;;;;;;4995543;28;20030;-87
2021/12/09 06:37:39;;;;;;;1999.90;999.90;;;;;;;;;;4995368;28;20040;-87
2021/12/09 06:40:07;;;;;;;1999.90;999.90;;;;;;;;;;4963974;28;20442;-87
2021/12/09 06:42:34;;;;;;;1999.90;999.90;;;;;;;;;;4978883;28;20026;-87
2021/12/09 06:45:01;;;;;;;1999.90;999.90;;;;;;;;;;4979104;28;20547;-87
2021/12/09 06:47:30;;;;;;;1999.90;999.90;;;;;;;;;;4978646;28;20022;-88
2021/12/09 06:49:57;;;;;;;1999.90;999.90;;;;;;;;;;4978794;28;20030;-88
2021/12/09 06:52:22;;;;;;;1999.90;999.90;;;;;;;;;;4959733;28;20132;-88
2021/12/09 06:54:48;;;;;;;1999.90;999.90;;;;;;;;;;4975599;28;20544;-88
2021/12/09 06:57:13;;;;;;;1999.90;999.90;;;;;;;;;;4975616;28;20026;-88
2021/12/09 06:59:39;;;;;;;1999.90;999.90;;;;;;;;;;4991756;28;20040;-87
2021/12/09 07:02:05;;;;;;;1999.90;999.90;;;;;;;;;;4975571;28;20116;-88
2021/12/09 07:04:34;;;;;;;1999.90;999.90;;;;;;;;;;4982203;28;20365;-91
2021/12/09 07:07:01;;;;;;;1999.90;999.90;;;;;;;;;;4962713;28;20809;-94
2021/12/09 07:09:29;;;;;;;1999.90;999.90;;;;;;;;;;4961955;28;20743;-88
2021/12/09 07:11:58;;;;;;;1999.90;999.90;;;;;;;;;;4956337;28;20472;-92
2021/12/09 07:14:30;;;;;;;1999.90;999.90;;;;;;;;;;4985710;28;20037;-80
2021/12/09 07:16:55;;;;;;;1999.90;999.90;;;;;;;;;;4991600;28;20041;-81
2021/12/09 07:19:21;;;;;;;1999.90;999.90;;;;;;;;;;4976497;28;20412;-82
2021/12/09 07:21:46;;;;;;;1999.90;999.90;;;;;;;;;;4996646;28;20030;-82
2021/12/09 07:24:12;;;;;;;1999.90;999.90;;;;;;;;;;4996414;28;20037;-83
2021/12/09 07:26:37;;;;;;;1999.90;999.90;;;;;;;;;;4965330;28;20041;-82
2021/12/09 07:29:02;;;;;;;1999.90;999.90;;;;;;;;;;4964755;28;20034;-82
2021/12/09 07:31:28;;;;;;;1999.90;999.90;;;;;;;;;;4964277;28;20472;-82
2021/12/09 07:33:54;;;;;;;1999.90;999.90;;;;;;;;;;4965055;28;20030;-82
2021/12/09 07:36:19;;;;;;;1999.90;999.90;;;;;;;;;;4962153;28;20053;-82
2021/12/09 07:38:48;;;;;;;1999.90;999.90;;;;;;;;;;4978058;28;20030;-82
2021/12/09 07:41:13;;;;;;;1999.90;999.90;;;;;;;;;;4977437;28;20026;-82
2021/12/09 07:43:39;;;;;;;1999.90;999.90;;;;;;;;;;4961662;28;20945;-82
2021/12/09 07:46:05;;;;;;;1999.90;999.90;;;;;;;;;;4977312;28;20069;-83
2021/12/09 07:48:30;;;;;;;1999.90;999.90;;;;;;;;;;4961611;28;20396;-83
2021/12/09 07:50:56;;;;;;;1999.90;999.90;;;;;;;;;;4977969;28;20038;-82
2021/12/09 07:53:22;;;;;;;1999.90;999.90;;;;;;;;;;4961533;28;20046;-82
2021/12/09 07:55:49;;;;;;;1999.90;999.90;;;;;;;;;;4977989;28;20038;-82
2021/12/09 07:58:14;;;;;;;1999.90;999.90;;;;;;;;;;4961572;28;20519;-82
2021/12/09 08:00:39;;;;;;;1999.90;999.90;;;;;;;;;;4960919;28;20042;-82
2021/12/09 08:03:05;;;;;;;1999.90;999.90;;;;;;;;;;5010087;28;20038;-82
2021/12/09 08:05:34;;;;;;;1999.90;999.90;;;;;;;;;;4945390;28;20023;-82
2021/12/09 08:07:59;;;;;;;1999.90;999.90;;;;;;;;;;4973203;28;20039;-83
2021/12/09 08:10:26;;;;;;;1999.90;999.90;;;;;;;;;;4999859;28;20041;-82
2021/12/09 08:12:52;;;;;;;1999.90;999.90;;;;;;;;;;5016836;28;20057;-82
2021/12/09 08:15:18;;;;;;;1999.90;999.90;;;;;;;;;;4968696;28;20117;-82
2021/12/09 08:20:12;;;;;;;1999.90;999.90;;;;;;;;;;4993563;28;20034;-82
2021/12/09 08:22:37;;;;;;;1999.90;999.90;;;;;;;;;;4993501;28;20097;-82
2021/12/09 08:25:06;;;;;;;1097.97;508.67;;;;;;;;;;4993337;28;20125;-82
2021/12/09 08:27:32;;;;;;;1999.90;999.90;;;;;;;;;;4993614;28;20501;-82
2021/12/09 08:30:01;;;;;;;1999.90;999.90;;;;;;;;;;5009243;28;20073;-82
2021/12/09 08:32:26;;;;;;;1999.90;999.90;;;;;;;;;;5009726;28;20038;-82
2021/12/09 08:34:53;;;;;;;1999.90;999.90;;;;;;;;;;4977018;28;20026;-82
2021/12/09 08:37:19;;;;;;;1999.90;999.90;;;;;;;;;;4985122;28;20547;-82
2021/12/09 08:39:45;;;;;;;1999.90;999.90;;;;;;;;;;4976556;28;20042;-81
2021/12/09 08:42:10;;;;;;;1999.90;999.90;;;;;;;;;;4960326;28;20388;-82
2021/12/09 08:44:36;;;;;;;1999.90;999.90;;;;;;;;;;4960775;28;20500;-82
2021/12/09 08:47:01;;;;;;;1999.90;999.90;;;;;;;;;;4960382;28;20041;-81
2021/12/09 08:49:27;;;;;;;1999.90;999.90;;;;;;;;;;4960631;28;20030;-81
2021/12/09 08:51:52;;;;;;;1999.90;999.90;;;;;;;;;;4976343;28;20105;-82
2021/12/09 08:54:17;;;;;;;1999.90;999.90;;;;;;;;;;4976440;28;20493;-82
2021/12/09 08:56:44;;;;;;;1999.90;999.90;;;;;;;;;;4960132;28;20038;-82
2021/12/09 08:59:09;;;;;;;1999.90;999.90;;;;;;;;;;4976666;28;20041;-81
2021/12/09 09:01:35;;;;;;;1999.90;999.90;;;;;;;;;;4976132;28;20034;-81
2021/12/09 09:04:01;;;;;;;1999.90;999.90;;;;;;;;;;4944651;28;20037;-82
2021/12/09 09:06:29;;;;;;;1999.90;999.90;;;;;;;;;;4944617;28;20436;-81
2021/12/09 09:08:57;;;;;;;1999.90;999.90;;;;;;;;;;4986996;28;20025;-81
2021/12/09 09:11:23;;;;;;;1999.90;999.90;;;;;;;;;;5015379;28;20041;-82
2021/12/09 09:13:48;;;;;;;1999.90;999.90;;;;;;;;;;4999229;28;20396;-81
2021/12/09 09:16:14;;;;;;;1999.90;999.90;;;;;;;;;;4980009;28;20147;-83
2021/12/09 09:18:39;;;;;;;1999.90;999.90;;;;;;;;;;4979612;28;20087;-85
2021/12/09 09:21:05;;;;;;;1999.90;999.90;;;;;;;;;;4979808;28;20091;-85
2021/12/09 09:23:30;;;;;;;1999.90;999.90;;;;;;;;;;4979628;28;20072;-87
2021/12/09 09:25:56;;;;;;;1999.90;999.90;;;;;;;;;;4979832;28;20128;-87
2021/12/09 09:28:21;;;;;;;1999.90;999.90;;;;;;;;;;4980308;28;20022;-88
2021/12/09 09:30:53;;;;;;;1999.90;999.90;;;;;;;;;;4980035;28;20121;-87
2021/12/09 09:33:18;;;;;;;1999.90;999.90;;;;;;;;;;4965091;28;20034;-87
2021/12/09 09:35:44;;;;;;;1999.90;999.90;;;;;;;;;;4964066;28;20080;-88
2021/12/09 09:38:10;;;;;;;1999.90;999.90;;;;;;;;;;4998098;28;20029;-88
2021/12/09 09:40:46;;;;;;;1999.90;999.90;;;;;;;;;;4982893;28;20033;-87
2021/12/09 09:43:27;;;;;;;1999.90;999.90;;;;;;;;;;4999874;28;20099;-88
2021/12/09 09:45:59;;;;;;;1999.90;999.90;;;;;;;;;;5000744;28;20037;-90
2021/12/09 09:48:24;;;;;;;1999.90;999.90;;;;;;;;;;5015954;28;20026;-87
2021/12/09 09:50:50;;;;;;;1999.90;999.90;;;;;;;;;;5032240;28;20083;-88
2021/12/09 09:53:16;;;;;;;1999.90;999.90;;;;;;;;;;4999471;28;20038;-88
2021/12/09 09:55:43;;;;;;;1999.90;999.90;;;;;;;;;;4998816;28;20033;-87
2021/12/09 09:58:09;;;;;;;1999.90;999.90;;;;;;;;;;5015482;28;20479;-88
2021/12/09 10:00:34;;;;;;;1999.90;999.90;;;;;;;;;;4998523;28;20033;-88
2021/12/09 10:03:03;;;;;;;1999.90;999.90;;;;;;;;;;5015555;28;20091;-89
2021/12/09 10:05:36;;;;;;;1999.90;999.90;;;;;;;;;;4999569;28;20037;-90
2021/12/09 10:08:01;;;;;;;1999.90;999.90;;;;;;;;;;5000961;28;20017;-88
2021/12/09 10:10:27;;;;;;;1999.90;999.90;;;;;;;;;;4998562;28;20120;-89
2021/12/09 10:12:56;;;;;;;1999.90;999.90;;;;;;;;;;4999107;28;20025;-89
2021/12/09 10:15:49;;;;;;;1999.90;999.90;;;;;;;;;;4999339;28;20396;-91
2021/12/09 10:18:38;;;;;;;1999.90;999.90;;;;;;;;;;5008500;28;20080;-88
2021/12/09 10:21:07;;;;;;;1999.90;999.90;;;;;;;;;;4976126;28;20030;-90
2021/12/09 10:23:45;;;;;;;1999.90;999.90;;;;;;;;;;4975946;28;20042;-89
2021/12/09 10:26:12;;;;;;;1999.90;999.90;;;;;;;;;;4975882;28;20030;-88
2021/12/09 10:28:40;;;;;;;1999.90;999.90;;;;;;;;;;4975893;28;20030;-90
2021/12/09 10:31:29;;;;;;;1999.90;999.90;;;;;;;;;;4976103;28;20458;-89
2021/12/09 10:37:05;;;;;;;1999.90;999.90;;;;;;;;;;4993660;28;20041;-91
2021/12/09 10:39:40;;;;;;;1999.90;999.90;;;;;;;;;;4979008;28;20033;-90
2021/12/09 10:42:11;;;;;;;1999.90;999.90;;;;;;;;;;4978696;28;20037;-88
2021/12/09 10:44:38;;;;;;;1999.90;999.90;;;;;;;;;;4963534;28;20426;-87
2021/12/09 10:47:09;;;;;;;1999.90;999.90;;;;;;;;;;4978608;28;20365;-90
2021/12/09 10:50:07;;;;;;;1999.90;999.90;;;;;;;;;;4964262;28;20508;-89
2021/12/09 10:52:40;;;;;;;1999.90;999.90;;;;;;;;;;4996759;28;20040;-88
2021/12/09 10:55:43;;;;;;;1999.90;999.90;;;;;;;;;;4963867;28;20034;-90
2021/12/09 10:58:10;;;;;;;1999.90;999.90;;;;;;;;;;4996641;28;20099;-89
2021/12/09 11:00:40;;;;;;;1999.90;999.90;;;;;;;;;;4966842;28;20373;-91
2021/12/09 11:03:10;;;;;;;1999.90;999.90;;;;;;;;;;4982995;28;20091;-89
2021/12/09 11:05:48;;;;;;;1999.90;999.90;;;;;;;;;;4998648;28;20045;-86
2021/12/09 11:08:18;;;;;;;1999.90;999.90;;;;;;;;;;4975293;28;20132;-88
2021/12/09 11:10:48;;;;;;;1999.90;999.90;;;;;;;;;;5018027;28;20037;-89
2021/12/09 11:13:18;;;;;;;1999.90;999.90;;;;;;;;;;4987042;28;20025;-88
2021/12/09 11:15:50;;;;;;;1999.90;999.90;;;;;;;;;;4967898;28;20027;-88
2021/12/09 11:18:29;;;;;;;1999.90;999.90;;;;;;;;;;4979487;28;20030;-90
2021/12/09 11:20:54;;;;;;;1999.90;999.90;;;;;;;;;;4995946;28;20033;-89
2021/12/09 11:23:24;;;;;;;1999.90;999.90;;;;;;;;;;4995141;28;20031;-90
2021/12/09 11:25:50;;;;;;;1999.90;999.90;;;;;;;;;;4979338;28;20046;-88
2021/12/09 11:28:16;;;;;;;1999.90;999.90;;;;;;;;;;5007429;28;20025;-89
2021/12/09 11:31:11;;;;;;;1999.90;999.90;;;;;;;;;;5002018;28;20036;-88
2021/12/09 11:33:41;;;;;;;1999.90;999.90;;;;;;;;;;5018454;28;20091;-88
2021/12/09 11:36:07;;;;;;;1999.90;999.90;;;;;;;;;;5000548;28;20045;-88
2021/12/09 11:38:54;;;;;;;1999.90;999.90;;;;;;;;;;4982424;28;20029;-91
2021/12/09 11:41:35;;;;;;;1999.90;999.90;;;;;;;;;;4971171;28;20057;-90
2021/12/09 11:44:01;;;;;;;1999.90;999.90;;;;;;;;;;4982318;28;20033;-88
2021/12/09 11:46:26;;;;;;;1999.90;999.90;;;;;;;;;;4965932;28;20026;-89
2021/12/09 11:48:52;;;;;;;1999.90;999.90;;;;;;;;;;4965784;28;20034;-88
2021/12/09 11:51:17;;;;;;;1080.13;505.20;;;;;;;;;;4997992;28;20050;-87
2021/12/09 11:53:44;;;;;;;1999.90;999.90;;;;;;;;;;4981601;28;20468;-89
2021/12/09 12:08:00;;;;;;;1590.30;756.40;;;;;;;;;;4981984;28;20566;-86
2021/12/09 12:13:48;;;;;;;1999.90;999.90;;;;;;;;;;5013045;28;20033;-89
2021/12/09 12:19:25;;;;;;;;;;;;;;;;;;5011643;28;20023;-90
2021/12/09 12:27:15;;;;;;;1999.90;999.90;;;;;;;;;;5006238;28;20026;-90
2021/12/09 12:30:27;;;;;;;1999.90;999.90;;;;;;;;;;4969786;28;20060;-90
2021/12/09 12:35:52;;;;;;;1603.28;759.95;;;;;;;;;;4983979;28;20443;-91
2021/12/09 12:41:00;;;;;;;1545.75;753.90;;;;;;;;;;5000802;28;20487;-91
2021/12/09 12:43:36;;;;;;;1334.07;520.97;;;;;;;;;;5002524;28;20041;-90
2021/12/09 12:51:20;;;;;;;1235.22;515.67;;;;;;;;;;5014103;28;20034;-89
2021/12/09 12:54:10;;;;;;;1999.90;999.90;;;;;;;;;;4997309;28;20072;-90
2021/12/09 12:56:54;;;;;;;1999.90;999.90;;;;;;;;;;4983258;28;20488;-91
2021/12/09 12:59:21;;;;;;;1999.90;999.90;;;;;;;;;;4993457;28;20030;-91
2021/12/09 13:02:09;;;;;;;1999.90;999.90;;;;;;;;;;4964487;28;20034;-91
2021/12/09 13:07:21;;;;;;;1999.90;999.90;;;;;;;;;;4981652;28;20100;-88
2021/12/09 13:10:04;;;;;;;1999.90;999.90;;;;;;;;;;4993140;28;20035;-90
2021/12/09 13:12:40;;;;;;;1999.90;999.90;;;;;;;;;;4979642;28;20081;-90
2021/12/09 13:15:25;;;;;;;1999.90;999.90;;;;;;;;;;4961281;28;20022;-90
2021/12/09 13:18:04;;;;;;;1999.90;999.90;;;;;;;;;;4969057;28;20037;-91
2021/12/09 13:20:35;;;;;;;1999.90;999.90;;;;;;;;;;4983613;28;20120;-91
2021/12/09 13:23:25;;;;;;;1410.32;526.85;;;;;;;;;;4980469;28;20408;-91
2021/12/09 13:26:19;;;;;;;1999.90;999.90;;;;;;;;;;4980805;28;20045;-91
2021/12/09 13:28:59;;;;;;;1999.90;999.90;;;;;;;;;;4966496;28;20026;-91
2021/12/09 13:32:01;;;;;;;1648.65;763.33;;;;;;;;;;4965888;28;20033;-91
2021/12/09 13:34:35;;;;;;;1999.90;999.90;;;;;;;;;;4966392;28;20455;-91
2021/12/09 13:47:53;;;;;;;1999.90;999.90;;;;;;;;;;4998345;28;20080;-90
2021/12/09 13:55:32;;;;;;;1999.90;999.90;;;;;;;;;;5009240;28;20018;-91
2021/12/09 13:58:09;;;;;;;1999.90;999.90;;;;;;;;;;4995205;28;20045;-91
2021/12/09 14:00:43;;;;;;;1999.90;999.90;;;;;;;;;;4996781;28;20028;-90
2021/12/09 14:03:17;;;;;;;1999.90;999.90;;;;;;;;;;4979528;28;20038;-92
2021/12/09 14:05:52;;;;;;;1999.90;999.90;;;;;;;;;;4964416;28;20045;-84
2021/12/09 14:08:49;;;;;;;1601.07;756.95;;;;;;;;;;4990521;28;20080;-85
2021/12/09 14:11:24;;;;;;;1999.90;999.90;;;;;;;;;;4978789;28;20061;-86
2021/12/09 14:13:58;;;;;;;1999.90;999.90;;;;;;;;;;4979523;28;20034;-87
2021/12/09 14:21:33;;;;;;;1660.85;759.58;;;;;;;;;;4995728;28;20033;-85
2021/12/09 14:24:08;;;;;;;1655.22;762.92;;;;;;;;;;4962040;28;20026;-85
2021/12/09 14:26:34;;;;;;;1693.25;763.00;;;;;;;;;;5010413;28;20485;-85
2021/12/09 14:29:00;;;;;;;1336.38;523.10;;;;;;;;;;4961809;28;20033;-85
2021/12/09 14:31:26;;;;;;;1999.90;999.90;;;;;;;;;;4961994;28;20427;-85
2021/12/09 14:33:51;;;;;;;1999.90;999.90;;;;;;;;;;4977991;28;20095;-84
2021/12/09 14:36:18;;;;;;;1999.90;999.90;;;;;;;;;;4961839;28;20121;-85
2021/12/09 14:38:43;;;;;;;1999.90;999.90;;;;;;;;;;4974393;28;20038;-85
2021/12/09 14:41:26;;;;;;;1999.90;999.90;;;;;;;;;;4977437;28;20049;-85
2021/12/09 14:43:52;;;;;;;1999.90;999.90;;;;;;;;;;4963720;28;20037;-85
2021/12/09 14:46:24;;;;;;;1999.90;999.90;;;;;;;;;;4959273;28;20038;-85
2021/12/09 14:48:54;;;;;;;1203.38;525.10;;;;;;;;;;4965687;28;20077;-85
2021/12/09 14:51:30;;;;;;;1999.90;999.90;;;;;;;;;;4981809;28;20030;-85
2021/12/09 14:54:04;;;;;;;1786.93;783.50;;;;;;;;;;4992129;28;20076;-84
2021/12/09 14:56:32;;;;;;;1737.25;768.15;;;;;;;;;;5008450;28;20038;-85
2021/12/09 14:59:17;;;;;;;1557.70;538.67;;;;;;;;;;4975217;28;20041;-84
2021/12/09 15:01:44;;;;;;;1508.65;542.83;;;;;;;;;;4973316;28;20045;-84